Estación de Colina

Ultimos registro cada 15 minutos 75
Estación Fecha / Hora Temperatura Humedad Lluvia Velocidad Dirección Radiación Presion
75 Colina 08-05-2026 18:30 14,3 55 0 0 210 0 1017,5
74 Colina 08-05-2026 18:15 15 52 0 0 207 0 1017,2
73 Colina 08-05-2026 18:00 15,8 49 0 0,9 206 0 1016,8
72 Colina 08-05-2026 17:45 16,8 47 0 0,4 253 9 1016,7
71 Colina 08-05-2026 17:30 17,9 45 0 0 180 19 1016,6
70 Colina 08-05-2026 17:15 18,8 42 0 0,4 180 51 1016,6
69 Colina 08-05-2026 17:00 19,4 41 0 0,4 180 81 1016,6
68 Colina 08-05-2026 16:45 19,6 39 0 0 180 37 1016,5
67 Colina 08-05-2026 16:30 20,2 38 0 1,3 180 42 1016,5
66 Colina 08-05-2026 16:15 19,8 38 0 0,4 180 44 1016,6
65 Colina 08-05-2026 16:00 20,3 36 0 1,8 180 44 1016,5
64 Colina 08-05-2026 15:45 20,6 37 0 0,9 180 54 1016,7
63 Colina 08-05-2026 15:30 20,7 36 0 0,4 180 464 1017
62 Colina 08-05-2026 15:15 20,4 39 0 0,9 180 262 1017
61 Colina 08-05-2026 15:00 20,6 38 0 0,4 180 563 1017,1
60 Colina 08-05-2026 14:45 20,6 39 0 0 180 610 1017,3
59 Colina 08-05-2026 14:30 19,9 38 0 0,4 180 652 1017,5
58 Colina 08-05-2026 14:15 20,2 39 0 1,3 180 691 1017,5
57 Colina 08-05-2026 14:00 20,3 42 0 0,9 180 715 1017,7
56 Colina 08-05-2026 13:45 20,1 44 0 0,4 180 752 1017,7
55 Colina 08-05-2026 13:30 19,1 46 0 0 180 786 1018
54 Colina 08-05-2026 13:15 19,2 49 0 0,9 180 795 1018,3
53 Colina 08-05-2026 13:00 18,5 49 0 0,9 180 819 1018,5
52 Colina 08-05-2026 12:45 18,1 54 0 0,4 180 826 1018,8
51 Colina 08-05-2026 12:30 17,7 56 0 0,9 237 831 1018,9
50 Colina 08-05-2026 12:15 17,7 54 0 0 180 823 1019,3
49 Colina 08-05-2026 12:00 17,2 57 0 0,9 100 812 1019,3
48 Colina 08-05-2026 11:45 16,6 59 0 0 180 789 1019,5
47 Colina 08-05-2026 11:30 16,4 61 0 0,4 180 775 1019,7
46 Colina 08-05-2026 11:15 15,7 64 0 0,4 180 742 1019,9
45 Colina 08-05-2026 11:00 14,9 66 0 1,3 180 717 1020,1
44 Colina 08-05-2026 10:45 14,7 66 0 0 180 684 1020,4
43 Colina 08-05-2026 10:30 14,6 67 0 0 180 647 1020,6
42 Colina 08-05-2026 10:15 13,8 70 0 0 180 603 1020,9
41 Colina 08-05-2026 10:00 12,8 75 0 0 180 561 1021,1
40 Colina 08-05-2026 09:45 12,2 78 0 0 180 517 1021,1
39 Colina 08-05-2026 09:30 11,1 83 0 0 180 457 1021
38 Colina 08-05-2026 09:15 9,9 87 0 0 26 388 1021,2
37 Colina 08-05-2026 09:00 9,2 91 0 0 180 297 1020,9
36 Colina 08-05-2026 08:45 7,7 93 0 0 25 257 1020,9
35 Colina 08-05-2026 08:30 5,6 93 0 0 254 192 1021,1
34 Colina 08-05-2026 08:15 3,9 92 0 0 180 70 1020,8
33 Colina 08-05-2026 08:00 2,8 91 0 0 180 72 1020,7
32 Colina 08-05-2026 07:45 2,7 90 0 0 180 23 1020,9
31 Colina 08-05-2026 07:30 2,7 90 0 0 180 9 1021,1
30 Colina 08-05-2026 07:15 2,5 90 0 0 180 0 1021,1
29 Colina 08-05-2026 07:00 2,3 90 0 0 180 0 1021,3
28 Colina 08-05-2026 06:45 1,8 89 0 0 180 0 1021,4
27 Colina 08-05-2026 06:30 2,1 88 0 0 180 0 1021,1
26 Colina 08-05-2026 06:15 2,5 89 0 0 180 0 1020,9
25 Colina 08-05-2026 06:00 2,4 89 0 0 180 0 1020,6
24 Colina 08-05-2026 05:45 2,3 87 0 0 180 0 1020,5
23 Colina 08-05-2026 05:30 3 88 0 0 180 0 1020,8
22 Colina 08-05-2026 05:15 3,2 87 0 0 180 0 1020,3
21 Colina 08-05-2026 05:00 3,8 88 0 0 254 0 1019,8
20 Colina 08-05-2026 04:45 3,8 88 0 0 254 0 1019,8
19 Colina 08-05-2026 04:30 3,6 87 0 0 255 0 1019,9
18 Colina 08-05-2026 04:15 3,9 86 0 0 255 0 1020
17 Colina 08-05-2026 04:00 4,8 87 0 0 180 0 1020,5
16 Colina 08-05-2026 03:45 5 89 0 0 180 0 1020,5
15 Colina 08-05-2026 03:30 4,6 87 0 0 180 0 1020,7
14 Colina 08-05-2026 03:15 4,7 86 0 0 180 0 1021
13 Colina 08-05-2026 03:00 5,1 85 0 0 180 0 1021,1
12 Colina 08-05-2026 02:45 5,4 83 0 0 180 0 1020,8
11 Colina 08-05-2026 02:30 6,3 85 0 0 180 0 1020,8
10 Colina 08-05-2026 02:15 6,8 85 0 0 180 0 1021
9 Colina 08-05-2026 02:00 6,9 85 0 0 180 0 1021,1
8 Colina 08-05-2026 01:45 7,1 83 0 0 180 0 1021,4
7 Colina 08-05-2026 01:30 7,8 81 0 0 180 0 1021,2
6 Colina 08-05-2026 01:15 8,4 82 0 0 253 0 1021,6
5 Colina 08-05-2026 01:00 9 82 0 0 253 0 1021,6
4 Colina 08-05-2026 00:45 9,4 81 0 0 253 0 1021,8
3 Colina 08-05-2026 00:30 10,2 80 0 0 180 0 1021,5
2 Colina 08-05-2026 00:15 10,8 79 0 0 180 0 1022,1
1 Colina 08-05-2026 00:00 11,1 79 0 0 180 0 1022,2